sensor_id;sensor_type;location;lat;lon;timestamp;P1;P2;P0
75946;PMS5003;64628;50.104;14.614;2023-03-12T00:02:09;53;46;
75946;PMS5003;64628;50.104;14.614;2023-03-12T00:04:34;59;46;
75946;PMS5003;64628;50.104;14.614;2023-03-12T00:07:00;66;57;
75946;PMS5003;64628;50.104;14.614;2023-03-12T00:09:26;73;63;
75946;PMS5003;64628;50.104;14.614;2023-03-12T00:11:51;66;52;
75946;PMS5003;64628;50.104;14.614;2023-03-12T00:14:16;53;46;
75946;PMS5003;64628;50.104;14.614;2023-03-12T00:16:41;59;50;
75946;PMS5003;64628;50.104;14.614;2023-03-12T00:19:06;60;46;
75946;PMS5003;64628;50.104;14.614;2023-03-12T00:21:32;74;53;
75946;PMS5003;64628;50.104;14.614;2023-03-12T00:23:57;67;55;
75946;PMS5003;64628;50.104;14.614;2023-03-12T00:26:23;62;49;
75946;PMS5003;64628;50.104;14.614;2023-03-12T00:28:49;63;50;
75946;PMS5003;64628;50.104;14.614;2023-03-12T00:31:14;72;48;
75946;PMS5003;64628;50.104;14.614;2023-03-12T00:33:39;59;45;
75946;PMS5003;64628;50.104;14.614;2023-03-12T00:36:05;64;46;
75946;PMS5003;64628;50.104;14.614;2023-03-12T00:38:29;50;45;
75946;PMS5003;64628;50.104;14.614;2023-03-12T00:40:55;63;49;
75946;PMS5003;64628;50.104;14.614;2023-03-12T00:43:21;63;53;
75946;PMS5003;64628;50.104;14.614;2023-03-12T00:45:46;60;46;
75946;PMS5003;64628;50.104;14.614;2023-03-12T00:48:12;63;48;
75946;PMS5003;64628;50.104;14.614;2023-03-12T00:50:37;47;35;
75946;PMS5003;64628;50.104;14.614;2023-03-12T00:53:03;42;35;
75946;PMS5003;64628;50.104;14.614;2023-03-12T00:55:28;46;38;
75946;PMS5003;64628;50.104;14.614;2023-03-12T00:57:54;43;38;
75946;PMS5003;64628;50.104;14.614;2023-03-12T01:00:19;45;41;
75946;PMS5003;64628;50.104;14.614;2023-03-12T01:02:45;49;46;
75946;PMS5003;64628;50.104;14.614;2023-03-12T01:05:11;56;43;
75946;PMS5003;64628;50.104;14.614;2023-03-12T01:07:36;53;40;
75946;PMS5003;64628;50.104;14.614;2023-03-12T01:10:01;39;34;
75946;PMS5003;64628;50.104;14.614;2023-03-12T01:12:27;56;47;
75946;PMS5003;64628;50.104;14.614;2023-03-12T01:14:52;49;41;
75946;PMS5003;64628;50.104;14.614;2023-03-12T01:17:17;49;42;
75946;PMS5003;64628;50.104;14.614;2023-03-12T01:19:43;43;39;
75946;PMS5003;64628;50.104;14.614;2023-03-12T01:22:08;45;34;
75946;PMS5003;64628;50.104;14.614;2023-03-12T01:24:34;45;39;
75946;PMS5003;64628;50.104;14.614;2023-03-12T01:26:59;35;28;
75946;PMS5003;64628;50.104;14.614;2023-03-12T01:29:24;39;34;
75946;PMS5003;64628;50.104;14.614;2023-03-12T01:31:50;41;35;
75946;PMS5003;64628;50.104;14.614;2023-03-12T01:34:15;32;29;
75946;PMS5003;64628;50.104;14.614;2023-03-12T01:36:41;41;36;
75946;PMS5003;64628;50.104;14.614;2023-03-12T01:39:06;41;32;
75946;PMS5003;64628;50.104;14.614;2023-03-12T01:41:32;41;32;
75946;PMS5003;64628;50.104;14.614;2023-03-12T01:43:58;42;31;
75946;PMS5003;64628;50.104;14.614;2023-03-12T01:46:25;38;34;
75946;PMS5003;64628;50.104;14.614;2023-03-12T01:48:50;38;28;
75946;PMS5003;64628;50.104;14.614;2023-03-12T01:51:15;39;32;
75946;PMS5003;64628;50.104;14.614;2023-03-12T01:53:40;39;31;
75946;PMS5003;64628;50.104;14.614;2023-03-12T01:56:05;36;27;
75946;PMS5003;64628;50.104;14.614;2023-03-12T01:58:31;47;34;
75946;PMS5003;64628;50.104;14.614;2023-03-12T02:00:56;36;29;
75946;PMS5003;64628;50.104;14.614;2023-03-12T02:03:22;46;34;
75946;PMS5003;64628;50.104;14.614;2023-03-12T02:05:50;44;29;
75946;PMS5003;64628;50.104;14.614;2023-03-12T02:08:13;45;31;
75946;PMS5003;64628;50.104;14.614;2023-03-12T02:10:38;45;31;
75946;PMS5003;64628;50.104;14.614;2023-03-12T02:13:04;42;32;
75946;PMS5003;64628;50.104;14.614;2023-03-12T02:15:29;34;34;
75946;PMS5003;64628;50.104;14.614;2023-03-12T02:17:54;34;28;
75946;PMS5003;64628;50.104;14.614;2023-03-12T02:20:21;37;32;
75946;PMS5003;64628;50.104;14.614;2023-03-12T02:22:46;34;31;
75946;PMS5003;64628;50.104;14.614;2023-03-12T02:25:15;34;31;
75946;PMS5003;64628;50.104;14.614;2023-03-12T02:27:36;34;25;
75946;PMS5003;64628;50.104;14.614;2023-03-12T02:30:02;45;29;
75946;PMS5003;64628;50.104;14.614;2023-03-12T02:32:28;36;29;
75946;PMS5003;64628;50.104;14.614;2023-03-12T02:34:53;41;32;
75946;PMS5003;64628;50.104;14.614;2023-03-12T02:37:18;36;29;
75946;PMS5003;64628;50.104;14.614;2023-03-12T02:39:45;41;36;
75946;PMS5003;64628;50.104;14.614;2023-03-12T02:42:09;34;27;
75946;PMS5003;64628;50.104;14.614;2023-03-12T02:44:35;34;32;
75946;PMS5003;64628;50.104;14.614;2023-03-12T02:47:00;32;26;
75946;PMS5003;64628;50.104;14.614;2023-03-12T02:49:27;36;29;
75946;PMS5003;64628;50.104;14.614;2023-03-12T02:51:50;31;25;
75946;PMS5003;64628;50.104;14.614;2023-03-12T02:54:17;32;27;
75946;PMS5003;64628;50.104;14.614;2023-03-12T02:56:41;37;27;
75946;PMS5003;64628;50.104;14.614;2023-03-12T02:59:07;41;35;
75946;PMS5003;64628;50.104;14.614;2023-03-12T03:01:32;48;35;
75946;PMS5003;64628;50.104;14.614;2023-03-12T03:03:58;61;52;
75946;PMS5003;64628;50.104;14.614;2023-03-12T03:06:23;32;28;
75946;PMS5003;64628;50.104;14.614;2023-03-12T03:08:48;38;32;
75946;PMS5003;64628;50.104;14.614;2023-03-12T03:11:13;33;26;
75946;PMS5003;64628;50.104;14.614;2023-03-12T03:13:39;44;30;
75946;PMS5003;64628;50.104;14.614;2023-03-12T03:16:05;28;22;
75946;PMS5003;64628;50.104;14.614;2023-03-12T03:18:30;27;24;
75946;PMS5003;64628;50.104;14.614;2023-03-12T03:20:55;30;22;
75946;PMS5003;64628;50.104;14.614;2023-03-12T03:23:21;31;28;
75946;PMS5003;64628;50.104;14.614;2023-03-12T03:25:47;38;32;
75946;PMS5003;64628;50.104;14.614;2023-03-12T03:28:12;34;27;
75946;PMS5003;64628;50.104;14.614;2023-03-12T03:30:38;31;25;
75946;PMS5003;64628;50.104;14.614;2023-03-12T03:33:03;28;25;
75946;PMS5003;64628;50.104;14.614;2023-03-12T03:35:28;41;35;
75946;PMS5003;64628;50.104;14.614;2023-03-12T03:37:54;38;32;
75946;PMS5003;64628;50.104;14.614;2023-03-12T03:40:19;37;30;
75946;PMS5003;64628;50.104;14.614;2023-03-12T03:42:44;37;35;
75946;PMS5003;64628;50.104;14.614;2023-03-12T03:45:10;37;30;
75946;PMS5003;64628;50.104;14.614;2023-03-12T03:47:35;34;25;
75946;PMS5003;64628;50.104;14.614;2023-03-12T03:50:02;35;31;
75946;PMS5003;64628;50.104;14.614;2023-03-12T03:52:26;30;22;
75946;PMS5003;64628;50.104;14.614;2023-03-12T03:54:51;30;25;
75946;PMS5003;64628;50.104;14.614;2023-03-12T03:57:16;37;31;
75946;PMS5003;64628;50.104;14.614;2023-03-12T03:59:41;31;23;
75946;PMS5003;64628;50.104;14.614;2023-03-12T04:02:07;27;21;
75946;PMS5003;64628;50.104;14.614;2023-03-12T04:06:58;44;37;
75946;PMS5003;64628;50.104;14.614;2023-03-12T04:09:23;24;21;
75946;PMS5003;64628;50.104;14.614;2023-03-12T04:11:48;38;23;
75946;PMS5003;64628;50.104;14.614;2023-03-12T04:14:14;25;20;
75946;PMS5003;64628;50.104;14.614;2023-03-12T04:16:39;23;20;
75946;PMS5003;64628;50.104;14.614;2023-03-12T04:19:05;33;21;
75946;PMS5003;64628;50.104;14.614;2023-03-12T04:21:30;30;25;
75946;PMS5003;64628;50.104;14.614;2023-03-12T04:23:55;30;24;
75946;PMS5003;64628;50.104;14.614;2023-03-12T04:26:20;30;27;
75946;PMS5003;64628;50.104;14.614;2023-03-12T04:28:45;31;24;
75946;PMS5003;64628;50.104;14.614;2023-03-12T04:31:11;23;20;
75946;PMS5003;64628;50.104;14.614;2023-03-12T04:33:37;35;27;
75946;PMS5003;64628;50.104;14.614;2023-03-12T04:36:03;28;24;
75946;PMS5003;64628;50.104;14.614;2023-03-12T04:38:28;22;21;
75946;PMS5003;64628;50.104;14.614;2023-03-12T04:40:57;50;44;
75946;PMS5003;64628;50.104;14.614;2023-03-12T04:43:19;40;32;
75946;PMS5003;64628;50.104;14.614;2023-03-12T04:45:44;25;17;
75946;PMS5003;64628;50.104;14.614;2023-03-12T04:48:10;39;34;
75946;PMS5003;64628;50.104;14.614;2023-03-12T04:50:35;38;34;
75946;PMS5003;64628;50.104;14.614;2023-03-12T04:53:00;24;18;
75946;PMS5003;64628;50.104;14.614;2023-03-12T04:55:25;30;21;
75946;PMS5003;64628;50.104;14.614;2023-03-12T04:57:51;47;43;
75946;PMS5003;64628;50.104;14.614;2023-03-12T05:00:17;34;33;
75946;PMS5003;64628;50.104;14.614;2023-03-12T05:02:42;43;38;
75946;PMS5003;64628;50.104;14.614;2023-03-12T05:05:09;40;35;
75946;PMS5003;64628;50.104;14.614;2023-03-12T05:07:32;34;33;
75946;PMS5003;64628;50.104;14.614;2023-03-12T05:09:58;33;31;
75946;PMS5003;64628;50.104;14.614;2023-03-12T05:12:24;53;43;
75946;PMS5003;64628;50.104;14.614;2023-03-12T05:14:49;46;41;
75946;PMS5003;64628;50.104;14.614;2023-03-12T05:17:14;49;43;
75946;PMS5003;64628;50.104;14.614;2023-03-12T05:19:40;23;18;
75946;PMS5003;64628;50.104;14.614;2023-03-12T05:22:05;25;20;
75946;PMS5003;64628;50.104;14.614;2023-03-12T05:24:30;28;20;
75946;PMS5003;64628;50.104;14.614;2023-03-12T05:26:55;30;20;
75946;PMS5003;64628;50.104;14.614;2023-03-12T05:29:21;21;18;
75946;PMS5003;64628;50.104;14.614;2023-03-12T05:31:46;31;18;
75946;PMS5003;64628;50.104;14.614;2023-03-12T05:34:11;51;50;
75946;PMS5003;64628;50.104;14.614;2023-03-12T05:36:37;24;20;
75946;PMS5003;64628;50.104;14.614;2023-03-12T05:39:02;41;34;
75946;PMS5003;64628;50.104;14.614;2023-03-12T05:41:28;34;31;
75946;PMS5003;64628;50.104;14.614;2023-03-12T05:43:53;37;37;
75946;PMS5003;64628;50.104;14.614;2023-03-12T05:46:18;31;25;
75946;PMS5003;64628;50.104;14.614;2023-03-12T05:48:44;54;44;
75946;PMS5003;64628;50.104;14.614;2023-03-12T05:51:09;54;46;
75946;PMS5003;64628;50.104;14.614;2023-03-12T05:53:34;46;45;
75946;PMS5003;64628;50.104;14.614;2023-03-12T05:56:01;26;19;
75946;PMS5003;64628;50.104;14.614;2023-03-12T05:58:25;38;29;
75946;PMS5003;64628;50.104;14.614;2023-03-12T06:00:51;35;33;
75946;PMS5003;64628;50.104;14.614;2023-03-12T06:03:16;36;26;
75946;PMS5003;64628;50.104;14.614;2023-03-12T06:05:42;30;26;
75946;PMS5003;64628;50.104;14.614;2023-03-12T06:08:07;30;26;
75946;PMS5003;64628;50.104;14.614;2023-03-12T06:10:33;23;19;
75946;PMS5003;64628;50.104;14.614;2023-03-12T06:12:58;23;20;
75946;PMS5003;64628;50.104;14.614;2023-03-12T06:15:24;23;17;
75946;PMS5003;64628;50.104;14.614;2023-03-12T06:17:49;20;16;
75946;PMS5003;64628;50.104;14.614;2023-03-12T06:20:15;23;16;
75946;PMS5003;64628;50.104;14.614;2023-03-12T06:22:41;24;18;
75946;PMS5003;64628;50.104;14.614;2023-03-12T06:25:06;22;21;
75946;PMS5003;64628;50.104;14.614;2023-03-12T06:27:32;18;15;
75946;PMS5003;64628;50.104;14.614;2023-03-12T06:29:57;21;17;
75946;PMS5003;64628;50.104;14.614;2023-03-12T06:32:23;26;21;
75946;PMS5003;64628;50.104;14.614;2023-03-12T06:34:49;22;20;
75946;PMS5003;64628;50.104;14.614;2023-03-12T06:37:14;25;24;
75946;PMS5003;64628;50.104;14.614;2023-03-12T06:39:40;17;17;
75946;PMS5003;64628;50.104;14.614;2023-03-12T06:42:06;26;22;
75946;PMS5003;64628;50.104;14.614;2023-03-12T06:44:31;26;22;
75946;PMS5003;64628;50.104;14.614;2023-03-12T06:46:57;18;14;
75946;PMS5003;64628;50.104;14.614;2023-03-12T06:49:23;19;16;
75946;PMS5003;64628;50.104;14.614;2023-03-12T06:51:48;23;17;
75946;PMS5003;64628;50.104;14.614;2023-03-12T06:54:14;21;16;
75946;PMS5003;64628;50.104;14.614;2023-03-12T06:56:40;33;29;
75946;PMS5003;64628;50.104;14.614;2023-03-12T06:59:05;24;18;
75946;PMS5003;64628;50.104;14.614;2023-03-12T07:01:30;22;16;
75946;PMS5003;64628;50.104;14.614;2023-03-12T07:03:56;20;17;
75946;PMS5003;64628;50.104;14.614;2023-03-12T07:06:21;21;17;
75946;PMS5003;64628;50.104;14.614;2023-03-12T07:08:46;22;16;
75946;PMS5003;64628;50.104;14.614;2023-03-12T07:11:12;19;14;
75946;PMS5003;64628;50.104;14.614;2023-03-12T07:13:38;17;17;
75946;PMS5003;64628;50.104;14.614;2023-03-12T07:16:04;25;18;
75946;PMS5003;64628;50.104;14.614;2023-03-12T07:18:28;19;15;
75946;PMS5003;64628;50.104;14.614;2023-03-12T07:20:54;20;18;
75946;PMS5003;64628;50.104;14.614;2023-03-12T07:23:20;18;15;
75946;PMS5003;64628;50.104;14.614;2023-03-12T07:25:45;25;20;
75946;PMS5003;64628;50.104;14.614;2023-03-12T07:28:11;14;12;
75946;PMS5003;64628;50.104;14.614;2023-03-12T07:30:37;27;21;
75946;PMS5003;64628;50.104;14.614;2023-03-12T07:33:02;16;15;
75946;PMS5003;64628;50.104;14.614;2023-03-12T07:35:27;15;14;
75946;PMS5003;64628;50.104;14.614;2023-03-12T07:37:53;17;17;
75946;PMS5003;64628;50.104;14.614;2023-03-12T07:40:18;16;14;
75946;PMS5003;64628;50.104;14.614;2023-03-12T07:42:43;17;11;
75946;PMS5003;64628;50.104;14.614;2023-03-12T07:45:09;15;13;
75946;PMS5003;64628;50.104;14.614;2023-03-12T07:47:34;15;13;
75946;PMS5003;64628;50.104;14.614;2023-03-12T07:49:59;13;13;
75946;PMS5003;64628;50.104;14.614;2023-03-12T07:52:26;14;13;
75946;PMS5003;64628;50.104;14.614;2023-03-12T07:54:50;13;11;
75946;PMS5003;64628;50.104;14.614;2023-03-12T07:57:16;19;15;
75946;PMS5003;64628;50.104;14.614;2023-03-12T07:59:41;12;12;
75946;PMS5003;64628;50.104;14.614;2023-03-12T08:02:08;13;11;
75946;PMS5003;64628;50.104;14.614;2023-03-12T08:04:32;16;10;
75946;PMS5003;64628;50.104;14.614;2023-03-12T08:06:58;12;10;
75946;PMS5003;64628;50.104;14.614;2023-03-12T08:09:23;14;11;
75946;PMS5003;64628;50.104;14.614;2023-03-12T08:11:48;12;12;
75946;PMS5003;64628;50.104;14.614;2023-03-12T08:14:14;10;10;
75946;PMS5003;64628;50.104;14.614;2023-03-12T08:16:39;11;9;
75946;PMS5003;64628;50.104;14.614;2023-03-12T08:19:04;12;11;
75946;PMS5003;64628;50.104;14.614;2023-03-12T08:21:30;12;10;
75946;PMS5003;64628;50.104;14.614;2023-03-12T08:23:55;13;12;
75946;PMS5003;64628;50.104;14.614;2023-03-12T08:26:20;13;11;
75946;PMS5003;64628;50.104;14.614;2023-03-12T08:28:46;10;8;
75946;PMS5003;64628;50.104;14.614;2023-03-12T08:31:11;12;11;
75946;PMS5003;64628;50.104;14.614;2023-03-12T08:33:36;9;9;
75946;PMS5003;64628;50.104;14.614;2023-03-12T08:36:02;17;9;
75946;PMS5003;64628;50.104;14.614;2023-03-12T08:38:27;11;9;
75946;PMS5003;64628;50.104;14.614;2023-03-12T08:40:54;10;10;
75946;PMS5003;64628;50.104;14.614;2023-03-12T08:43:19;12;10;
75946;PMS5003;64628;50.104;14.614;2023-03-12T08:45:44;10;7;
75946;PMS5003;64628;50.104;14.614;2023-03-12T08:48:09;14;13;
75946;PMS5003;64628;50.104;14.614;2023-03-12T08:50:35;9;7;
75946;PMS5003;64628;50.104;14.614;2023-03-12T08:53:00;9;9;
75946;PMS5003;64628;50.104;14.614;2023-03-12T08:55:26;14;11;
75946;PMS5003;64628;50.104;14.614;2023-03-12T08:57:51;21;18;
75946;PMS5003;64628;50.104;14.614;2023-03-12T09:00:17;9;7;
75946;PMS5003;64628;50.104;14.614;2023-03-12T09:02:43;9;8;
75946;PMS5003;64628;50.104;14.614;2023-03-12T09:05:08;14;12;
75946;PMS5003;64628;50.104;14.614;2023-03-12T09:07:33;9;9;
75946;PMS5003;64628;50.104;14.614;2023-03-12T09:09:58;11;8;
75946;PMS5003;64628;50.104;14.614;2023-03-12T09:12:23;18;17;
75946;PMS5003;64628;50.104;14.614;2023-03-12T09:14:49;23;22;
75946;PMS5003;64628;50.104;14.614;2023-03-12T09:17:14;33;33;
75946;PMS5003;64628;50.104;14.614;2023-03-12T09:19:40;8;8;
75946;PMS5003;64628;50.104;14.614;2023-03-12T09:22:05;13;7;
75946;PMS5003;64628;50.104;14.614;2023-03-12T09:24:30;10;9;
75946;PMS5003;64628;50.104;14.614;2023-03-12T09:27:01;12;10;
75946;PMS5003;64628;50.104;14.614;2023-03-12T09:29:21;7;6;
75946;PMS5003;64628;50.104;14.614;2023-03-12T09:31:46;6;5;
75946;PMS5003;64628;50.104;14.614;2023-03-12T09:34:11;9;7;
75946;PMS5003;64628;50.104;14.614;2023-03-12T09:36:36;10;9;
75946;PMS5003;64628;50.104;14.614;2023-03-12T09:39:02;7;5;
75946;PMS5003;64628;50.104;14.614;2023-03-12T09:41:28;6;6;
75946;PMS5003;64628;50.104;14.614;2023-03-12T09:43:53;12;11;
75946;PMS5003;64628;50.104;14.614;2023-03-12T09:46:20;7;7;
75946;PMS5003;64628;50.104;14.614;2023-03-12T09:48:43;5;4;
75946;PMS5003;64628;50.104;14.614;2023-03-12T09:51:13;7;7;
75946;PMS5003;64628;50.104;14.614;2023-03-12T09:53:36;6;6;
75946;PMS5003;64628;50.104;14.614;2023-03-12T09:56:01;3;3;
75946;PMS5003;64628;50.104;14.614;2023-03-12T09:58:27;7;7;
75946;PMS5003;64628;50.104;14.614;2023-03-12T10:00:52;6;6;
75946;PMS5003;64628;50.104;14.614;2023-03-12T10:03:21;7;4;
75946;PMS5003;64628;50.104;14.614;2023-03-12T10:05:44;21;19;
75946;PMS5003;64628;50.104;14.614;2023-03-12T10:08:10;25;25;
75946;PMS5003;64628;50.104;14.614;2023-03-12T10:10:36;20;19;
75946;PMS5003;64628;50.104;14.614;2023-03-12T10:13:03;29;28;
75946;PMS5003;64628;50.104;14.614;2023-03-12T10:15:29;7;6;
75946;PMS5003;64628;50.104;14.614;2023-03-12T10:17:55;5;4;
75946;PMS5003;64628;50.104;14.614;2023-03-12T10:20:22;6;5;
75946;PMS5003;64628;50.104;14.614;2023-03-12T10:22:45;7;6;
75946;PMS5003;64628;50.104;14.614;2023-03-12T10:25:07;8;5;
75946;PMS5003;64628;50.104;14.614;2023-03-12T10:27:33;4;4;
75946;PMS5003;64628;50.104;14.614;2023-03-12T10:29:58;7;7;
75946;PMS5003;64628;50.104;14.614;2023-03-12T10:32:24;6;6;
75946;PMS5003;64628;50.104;14.614;2023-03-12T10:34:49;6;5;
75946;PMS5003;64628;50.104;14.614;2023-03-12T10:37:15;5;5;
75946;PMS5003;64628;50.104;14.614;2023-03-12T10:39:38;7;6;
75946;PMS5003;64628;50.104;14.614;2023-03-12T10:42:04;6;6;
75946;PMS5003;64628;50.104;14.614;2023-03-12T10:44:29;9;9;
75946;PMS5003;64628;50.104;14.614;2023-03-12T10:46:58;8;7;
75946;PMS5003;64628;50.104;14.614;2023-03-12T10:49:24;6;6;
75946;PMS5003;64628;50.104;14.614;2023-03-12T10:56:38;8;7;
75946;PMS5003;64628;50.104;14.614;2023-03-12T10:58:59;5;5;
75946;PMS5003;64628;50.104;14.614;2023-03-12T11:01:26;5;4;
75946;PMS5003;64628;50.104;14.614;2023-03-12T11:03:50;7;7;
75946;PMS5003;64628;50.104;14.614;2023-03-12T11:06:19;8;6;
75946;PMS5003;64628;50.104;14.614;2023-03-12T11:08:40;10;10;
75946;PMS5003;64628;50.104;14.614;2023-03-12T11:11:05;11;11;
75946;PMS5003;64628;50.104;14.614;2023-03-12T11:13:31;15;13;
75946;PMS5003;64628;50.104;14.614;2023-03-12T11:15:56;6;6;
75946;PMS5003;64628;50.104;14.614;2023-03-12T11:18:22;4;4;
75946;PMS5003;64628;50.104;14.614;2023-03-12T11:20:46;8;6;
75946;PMS5003;64628;50.104;14.614;2023-03-12T11:23:12;9;9;
75946;PMS5003;64628;50.104;14.614;2023-03-12T11:25:37;6;6;
75946;PMS5003;64628;50.104;14.614;2023-03-12T11:28:02;7;7;
75946;PMS5003;64628;50.104;14.614;2023-03-12T11:30:31;10;9;
75946;PMS5003;64628;50.104;14.614;2023-03-12T11:32:54;7;7;
75946;PMS5003;64628;50.104;14.614;2023-03-12T11:35:20;8;8;
75946;PMS5003;64628;50.104;14.614;2023-03-12T11:37:48;8;8;
75946;PMS5003;64628;50.104;14.614;2023-03-12T11:40:13;7;7;
75946;PMS5003;64628;50.104;14.614;2023-03-12T11:45:01;7;7;
75946;PMS5003;64628;50.104;14.614;2023-03-12T11:47:30;7;6;
75946;PMS5003;64628;50.104;14.614;2023-03-12T11:49:53;8;7;
75946;PMS5003;64628;50.104;14.614;2023-03-12T11:52:17;6;6;
75946;PMS5003;64628;50.104;14.614;2023-03-12T11:54:47;5;5;
75946;PMS5003;64628;50.104;14.614;2023-03-12T11:57:06;16;11;
75946;PMS5003;64628;50.104;14.614;2023-03-12T11:59:36;11;9;
75946;PMS5003;64628;50.104;14.614;2023-03-12T12:01:58;8;5;
75946;PMS5003;64628;50.104;14.614;2023-03-12T12:04:32;13;13;
75946;PMS5003;64628;50.104;14.614;2023-03-12T12:06:50;17;17;
75946;PMS5003;64628;50.104;14.614;2023-03-12T12:09:15;15;15;
75946;PMS5003;64628;50.104;14.614;2023-03-12T12:11:42;8;8;
75946;PMS5003;64628;50.104;14.614;2023-03-12T12:14:07;10;7;
75946;PMS5003;64628;50.104;14.614;2023-03-12T12:16:33;11;10;
75946;PMS5003;64628;50.104;14.614;2023-03-12T12:18:58;7;5;
75946;PMS5003;64628;50.104;14.614;2023-03-12T12:21:25;8;8;
75946;PMS5003;64628;50.104;14.614;2023-03-12T12:23:47;8;7;
75946;PMS5003;64628;50.104;14.614;2023-03-12T12:26:11;10;5;
75946;PMS5003;64628;50.104;14.614;2023-03-12T12:28:39;11;7;
75946;PMS5003;64628;50.104;14.614;2023-03-12T12:31:05;16;15;
75946;PMS5003;64628;50.104;14.614;2023-03-12T12:33:30;11;10;
75946;PMS5003;64628;50.104;14.614;2023-03-12T12:35:53;9;9;
75946;PMS5003;64628;50.104;14.614;2023-03-12T12:38:20;7;7;
75946;PMS5003;64628;50.104;14.614;2023-03-12T12:40:45;10;9;
75946;PMS5003;64628;50.104;14.614;2023-03-12T12:43:13;7;6;
75946;PMS5003;64628;50.104;14.614;2023-03-12T12:45:35;9;6;
75946;PMS5003;64628;50.104;14.614;2023-03-12T12:48:01;7;7;
75946;PMS5003;64628;50.104;14.614;2023-03-12T12:50:26;14;10;
75946;PMS5003;64628;50.104;14.614;2023-03-12T12:52:51;9;6;
75946;PMS5003;64628;50.104;14.614;2023-03-12T12:55:17;10;7;
75946;PMS5003;64628;50.104;14.614;2023-03-12T12:57:43;9;7;
75946;PMS5003;64628;50.104;14.614;2023-03-12T13:00:13;11;10;
75946;PMS5003;64628;50.104;14.614;2023-03-12T13:02:37;10;9;
75946;PMS5003;64628;50.104;14.614;2023-03-12T13:04:57;9;8;
75946;PMS5003;64628;50.104;14.614;2023-03-12T13:07:29;10;10;
75946;PMS5003;64628;50.104;14.614;2023-03-12T13:09:48;9;9;
75946;PMS5003;64628;50.104;14.614;2023-03-12T13:12:14;6;5;
75946;PMS5003;64628;50.104;14.614;2023-03-12T13:14:39;30;23;
75946;PMS5003;64628;50.104;14.614;2023-03-12T13:17:06;15;11;
75946;PMS5003;64628;50.104;14.614;2023-03-12T13:19:29;36;36;
75946;PMS5003;64628;50.104;14.614;2023-03-12T13:22:02;12;9;
75946;PMS5003;64628;50.104;14.614;2023-03-12T13:24:21;18;13;
75946;PMS5003;64628;50.104;14.614;2023-03-12T13:26:50;9;9;
75946;PMS5003;64628;50.104;14.614;2023-03-12T13:29:12;39;37;
75946;PMS5003;64628;50.104;14.614;2023-03-12T13:31:37;30;30;
75946;PMS5003;64628;50.104;14.614;2023-03-12T13:36:28;34;34;
75946;PMS5003;64628;50.104;14.614;2023-03-12T13:38:54;25;21;
75946;PMS5003;64628;50.104;14.614;2023-03-12T13:48:35;28;27;
75946;PMS5003;64628;50.104;14.614;2023-03-12T13:51:00;26;26;
75946;PMS5003;64628;50.104;14.614;2023-03-12T13:53:25;23;22;
75946;PMS5003;64628;50.104;14.614;2023-03-12T13:58:16;67;60;
75946;PMS5003;64628;50.104;14.614;2023-03-12T14:00:43;18;16;
75946;PMS5003;64628;50.104;14.614;2023-03-12T14:03:10;16;15;
75946;PMS5003;64628;50.104;14.614;2023-03-12T14:05:33;17;16;
75946;PMS5003;64628;50.104;14.614;2023-03-12T14:10:27;11;10;
75946;PMS5003;64628;50.104;14.614;2023-03-12T14:12:50;8;8;
75946;PMS5003;64628;50.104;14.614;2023-03-12T14:15:16;8;7;
75946;PMS5003;64628;50.104;14.614;2023-03-12T14:17:39;7;7;
75946;PMS5003;64628;50.104;14.614;2023-03-12T14:20:09;13;10;
75946;PMS5003;64628;50.104;14.614;2023-03-12T14:22:32;30;29;
75946;PMS5003;64628;50.104;14.614;2023-03-12T14:24:56;30;29;
75946;PMS5003;64628;50.104;14.614;2023-03-12T14:27:23;28;26;
75946;PMS5003;64628;50.104;14.614;2023-03-12T14:29:49;13;7;
75946;PMS5003;64628;50.104;14.614;2023-03-12T14:32:12;5;5;
75946;PMS5003;64628;50.104;14.614;2023-03-12T14:34:39;32;32;
75946;PMS5003;64628;50.104;14.614;2023-03-12T14:37:04;28;26;
75946;PMS5003;64628;50.104;14.614;2023-03-12T14:39:30;25;22;
75946;PMS5003;64628;50.104;14.614;2023-03-12T14:41:55;21;21;
75946;PMS5003;64628;50.104;14.614;2023-03-12T14:44:21;12;7;
75946;PMS5003;64628;50.104;14.614;2023-03-12T14:46:45;8;8;
75946;PMS5003;64628;50.104;14.614;2023-03-12T14:49:13;8;6;
75946;PMS5003;64628;50.104;14.614;2023-03-12T14:51:35;10;8;
75946;PMS5003;64628;50.104;14.614;2023-03-12T14:54:01;12;7;
75946;PMS5003;64628;50.104;14.614;2023-03-12T14:56:27;8;8;
75946;PMS5003;64628;50.104;14.614;2023-03-12T14:58:52;8;7;
75946;PMS5003;64628;50.104;14.614;2023-03-12T15:01:18;8;8;
75946;PMS5003;64628;50.104;14.614;2023-03-12T15:03:43;13;12;
75946;PMS5003;64628;50.104;14.614;2023-03-12T15:06:14;7;7;
75946;PMS5003;64628;50.104;14.614;2023-03-12T15:08:34;7;7;
75946;PMS5003;64628;50.104;14.614;2023-03-12T15:10:59;10;8;
75946;PMS5003;64628;50.104;14.614;2023-03-12T15:13:25;7;7;
75946;PMS5003;64628;50.104;14.614;2023-03-12T15:15:51;10;8;
75946;PMS5003;64628;50.104;14.614;2023-03-12T15:18:16;10;10;
75946;PMS5003;64628;50.104;14.614;2023-03-12T15:20:41;9;8;
75946;PMS5003;64628;50.104;14.614;2023-03-12T15:23:08;8;7;
75946;PMS5003;64628;50.104;14.614;2023-03-12T15:25:32;12;8;
75946;PMS5003;64628;50.104;14.614;2023-03-12T15:28:00;9;7;
75946;PMS5003;64628;50.104;14.614;2023-03-12T15:30:24;10;8;
75946;PMS5003;64628;50.104;14.614;2023-03-12T15:37:40;20;13;
75946;PMS5003;64628;50.104;14.614;2023-03-12T15:40:06;17;15;
75946;PMS5003;64628;50.104;14.614;2023-03-12T15:42:35;14;10;
75946;PMS5003;64628;50.104;14.614;2023-03-12T15:44:57;17;13;
75946;PMS5003;64628;50.104;14.614;2023-03-12T15:47:22;13;9;
75946;PMS5003;64628;50.104;14.614;2023-03-12T15:49:48;9;9;
75946;PMS5003;64628;50.104;14.614;2023-03-12T15:54:39;14;13;
75946;PMS5003;64628;50.104;14.614;2023-03-12T15:59:30;14;9;
75946;PMS5003;64628;50.104;14.614;2023-03-12T16:01:55;22;17;
75946;PMS5003;64628;50.104;14.614;2023-03-12T16:04:21;13;11;
75946;PMS5003;64628;50.104;14.614;2023-03-12T16:06:47;15;13;
75946;PMS5003;64628;50.104;14.614;2023-03-12T16:09:13;13;12;
75946;PMS5003;64628;50.104;14.614;2023-03-12T16:11:37;11;9;
75946;PMS5003;64628;50.104;14.614;2023-03-12T16:14:03;15;9;
75946;PMS5003;64628;50.104;14.614;2023-03-12T16:16:28;15;12;
75946;PMS5003;64628;50.104;14.614;2023-03-12T16:18:53;12;11;
75946;PMS5003;64628;50.104;14.614;2023-03-12T16:21:19;20;18;
75946;PMS5003;64628;50.104;14.614;2023-03-12T16:23:44;12;12;
75946;PMS5003;64628;50.104;14.614;2023-03-12T16:26:10;13;11;
75946;PMS5003;64628;50.104;14.614;2023-03-12T16:28:35;15;11;
75946;PMS5003;64628;50.104;14.614;2023-03-12T16:31:01;11;9;